sensor_id;sensor_type;location;lat;lon;timestamp;pressure;altitude;pressure_sealevel;temperature;humidity
61113;BME280;47184;57.998;56.184;2023-02-23T00:00:35;98175.78;;;-11.06;54.93
61113;BME280;47184;57.998;56.184;2023-02-23T00:03:01;98181.69;;;-11.05;55.05
61113;BME280;47184;57.998;56.184;2023-02-23T00:05:30;98177.34;;;-11.03;55.20
61113;BME280;47184;57.998;56.184;2023-02-23T00:07:56;98188.50;;;-11.06;55.37
61113;BME280;47184;57.998;56.184;2023-02-23T00:10:23;98185.16;;;-11.06;55.55
61113;BME280;47184;57.998;56.184;2023-02-23T00:12:58;98179.06;;;-11.04;55.12
61113;BME280;47184;57.998;56.184;2023-02-23T00:15:26;98168.25;;;-11.09;55.25
61113;BME280;47184;57.998;56.184;2023-02-23T00:17:53;98183.34;;;-11.04;54.88
61113;BME280;47184;57.998;56.184;2023-02-23T00:20:24;98179.19;;;-11.07;55.13
61113;BME280;47184;57.998;56.184;2023-02-23T00:22:57;98187.69;;;-11.06;55.35
61113;BME280;47184;57.998;56.184;2023-02-23T00:25:24;98179.34;;;-11.10;55.47
61113;BME280;47184;57.998;56.184;2023-02-23T00:27:50;98184.50;;;-11.11;55.05
61113;BME280;47184;57.998;56.184;2023-02-23T00:30:18;98188.03;;;-11.14;55.38
61113;BME280;47184;57.998;56.184;2023-02-23T00:32:49;98170.63;;;-11.23;54.95
61113;BME280;47184;57.998;56.184;2023-02-23T00:35:17;98186.53;;;-11.18;55.49
61113;BME280;47184;57.998;56.184;2023-02-23T00:37:47;98188.25;;;-11.18;54.86
61113;BME280;47184;57.998;56.184;2023-02-23T00:40:15;98180.66;;;-11.20;55.11
61113;BME280;47184;57.998;56.184;2023-02-23T00:42:43;98175.03;;;-11.27;55.49
61113;BME280;47184;57.998;56.184;2023-02-23T00:45:11;98166.84;;;-11.33;55.32
61113;BME280;47184;57.998;56.184;2023-02-23T00:47:39;98178.47;;;-11.28;55.43
61113;BME280;47184;57.998;56.184;2023-02-23T00:50:09;98185.38;;;-11.30;55.20
61113;BME280;47184;57.998;56.184;2023-02-23T00:52:39;98181.56;;;-11.40;55.39
61113;BME280;47184;57.998;56.184;2023-02-23T00:55:06;98184.69;;;-11.33;55.26
61113;BME280;47184;57.998;56.184;2023-02-23T00:57:33;98183.03;;;-11.34;55.13
61113;BME280;47184;57.998;56.184;2023-02-23T00:59:59;98194.31;;;-11.40;55.40
61113;BME280;47184;57.998;56.184;2023-02-23T01:02:27;98177.84;;;-11.52;55.65
61113;BME280;47184;57.998;56.184;2023-02-23T01:04:55;98176.16;;;-11.51;55.46
61113;BME280;47184;57.998;56.184;2023-02-23T01:07:23;98179.38;;;-11.48;55.37
61113;BME280;47184;57.998;56.184;2023-02-23T01:09:50;98177.81;;;-11.50;55.34
61113;BME280;47184;57.998;56.184;2023-02-23T01:12:17;98145.72;;;-11.73;55.35
61113;BME280;47184;57.998;56.184;2023-02-23T01:14:43;98170.28;;;-11.72;54.71
61113;BME280;47184;57.998;56.184;2023-02-23T01:17:09;98185.69;;;-11.56;54.97
61113;BME280;47184;57.998;56.184;2023-02-23T01:19:36;98180.56;;;-11.55;55.35
61113;BME280;47184;57.998;56.184;2023-02-23T01:22:02;98178.22;;;-11.59;55.06
61113;BME280;47184;57.998;56.184;2023-02-23T01:24:28;98173.19;;;-11.61;54.96
61113;BME280;47184;57.998;56.184;2023-02-23T01:26:54;98175.03;;;-11.64;54.86
61113;BME280;47184;57.998;56.184;2023-02-23T01:29:20;98189.47;;;-11.65;55.03
61113;BME280;47184;57.998;56.184;2023-02-23T01:31:47;98177.03;;;-11.71;55.47
61113;BME280;47184;57.998;56.184;2023-02-23T01:34:19;98176.28;;;-11.73;55.46
61113;BME280;47184;57.998;56.184;2023-02-23T01:36:46;98174.69;;;-11.76;55.50
61113;BME280;47184;57.998;56.184;2023-02-23T01:39:15;98178.31;;;-11.81;55.48
61113;BME280;47184;57.998;56.184;2023-02-23T01:41:42;98176.00;;;-11.86;55.76
61113;BME280;47184;57.998;56.184;2023-02-23T01:46:55;98173.66;;;-11.90;55.65
61113;BME280;47184;57.998;56.184;2023-02-23T01:49:26;98184.44;;;-11.84;55.47
61113;BME280;47184;57.998;56.184;2023-02-23T01:52:11;98181.03;;;-11.84;55.19
61113;BME280;47184;57.998;56.184;2023-02-23T01:54:45;98177.88;;;-11.89;55.30
61113;BME280;47184;57.998;56.184;2023-02-23T01:57:16;98163.50;;;-11.90;55.35
61113;BME280;47184;57.998;56.184;2023-02-23T01:59:44;98186.66;;;-11.78;55.53
61113;BME280;47184;57.998;56.184;2023-02-23T02:02:11;98164.41;;;-11.91;55.60
61113;BME280;47184;57.998;56.184;2023-02-23T02:04:40;98185.06;;;-11.80;55.26
61113;BME280;47184;57.998;56.184;2023-02-23T02:07:16;98159.56;;;-11.98;55.91
61113;BME280;47184;57.998;56.184;2023-02-23T02:09:48;98152.03;;;-12.01;55.62
61113;BME280;47184;57.998;56.184;2023-02-23T02:12:34;98160.25;;;-11.94;55.95
61113;BME280;47184;57.998;56.184;2023-02-23T02:15:01;98171.38;;;-11.96;56.21
61113;BME280;47184;57.998;56.184;2023-02-23T02:23:02;98177.28;;;-12.15;55.71
61113;BME280;47184;57.998;56.184;2023-02-23T02:37:19;98164.28;;;-12.29;55.49
61113;BME280;47184;57.998;56.184;2023-02-23T02:39:54;98161.69;;;-12.28;55.60
61113;BME280;47184;57.998;56.184;2023-02-23T02:42:47;98172.00;;;-12.31;55.92
61113;BME280;47184;57.998;56.184;2023-02-23T02:45:28;98169.66;;;-12.35;55.64
61113;BME280;47184;57.998;56.184;2023-02-23T02:48:05;98175.63;;;-12.36;56.07
61113;BME280;47184;57.998;56.184;2023-02-23T02:50:52;98171.28;;;-12.34;56.06
61113;BME280;47184;57.998;56.184;2023-02-23T02:53:57;98171.28;;;-12.34;55.98
61113;BME280;47184;57.998;56.184;2023-02-23T02:56:37;98162.75;;;-12.33;55.48
61113;BME280;47184;57.998;56.184;2023-02-23T02:59:10;98168.03;;;-12.38;56.04
61113;BME280;47184;57.998;56.184;2023-02-23T03:01:56;98174.81;;;-12.37;55.47
61113;BME280;47184;57.998;56.184;2023-02-23T03:04:40;98168.19;;;-12.41;55.54
61113;BME280;47184;57.998;56.184;2023-02-23T03:07:34;98181.16;;;-12.47;55.80
61113;BME280;47184;57.998;56.184;2023-02-23T03:10:42;98178.91;;;-12.55;55.90
61113;BME280;47184;57.998;56.184;2023-02-23T03:13:52;98172.88;;;-12.52;55.67
61113;BME280;47184;57.998;56.184;2023-02-23T03:17:07;98168.72;;;-12.53;55.56
61113;BME280;47184;57.998;56.184;2023-02-23T03:19:59;98180.06;;;-12.41;55.83
61113;BME280;47184;57.998;56.184;2023-02-23T03:23:18;98179.38;;;-12.45;55.75
61113;BME280;47184;57.998;56.184;2023-02-23T03:32:58;98169.88;;;-12.41;56.45
61113;BME280;47184;57.998;56.184;2023-02-23T03:36:09;98174.84;;;-12.38;55.80
61113;BME280;47184;57.998;56.184;2023-02-23T03:42:06;98168.44;;;-12.27;55.96
61113;BME280;47184;57.998;56.184;2023-02-23T03:44:53;98162.31;;;-12.23;56.14
61113;BME280;47184;57.998;56.184;2023-02-23T03:47:40;98164.44;;;-12.12;55.86
61113;BME280;47184;57.998;56.184;2023-02-23T03:50:35;98166.69;;;-12.06;56.18
61113;BME280;47184;57.998;56.184;2023-02-23T03:53:26;98162.19;;;-11.99;56.10
61113;BME280;47184;57.998;56.184;2023-02-23T03:56:15;98152.75;;;-11.97;56.04
61113;BME280;47184;57.998;56.184;2023-02-23T03:59:03;98146.78;;;-11.96;56.18
61113;BME280;47184;57.998;56.184;2023-02-23T04:01:51;98161.91;;;-11.93;56.18
61113;BME280;47184;57.998;56.184;2023-02-23T04:04:38;98161.91;;;-11.93;56.18
61113;BME280;47184;57.998;56.184;2023-02-23T04:07:24;98142.53;;;-11.95;55.73
61113;BME280;47184;57.998;56.184;2023-02-23T04:10:09;98160.25;;;-11.94;56.36
61113;BME280;47184;57.998;56.184;2023-02-23T04:16:03;98169.75;;;-11.79;56.41
61113;BME280;47184;57.998;56.184;2023-02-23T04:18:34;98141.34;;;-11.88;56.44
61113;BME280;47184;57.998;56.184;2023-02-23T04:21:01;98169.31;;;-11.69;56.28
61113;BME280;47184;57.998;56.184;2023-02-23T04:23:28;98157.06;;;-11.80;55.99
61113;BME280;47184;57.998;56.184;2023-02-23T04:25:55;98165.13;;;-11.70;56.17
61113;BME280;47184;57.998;56.184;2023-02-23T04:28:22;98170.72;;;-11.62;56.20
61113;BME280;47184;57.998;56.184;2023-02-23T04:30:49;98160.25;;;-11.56;56.10
61113;BME280;47184;57.998;56.184;2023-02-23T04:33:18;98138.53;;;-11.63;56.24
61113;BME280;47184;57.998;56.184;2023-02-23T04:35:44;98153.72;;;-11.43;55.82
61113;BME280;47184;57.998;56.184;2023-02-23T04:38:10;98161.69;;;-11.32;55.37
61113;BME280;47184;57.998;56.184;2023-02-23T04:40:36;98147.97;;;-11.29;56.14
61113;BME280;47184;57.998;56.184;2023-02-23T04:43:02;98150.22;;;-11.23;56.19
61113;BME280;47184;57.998;56.184;2023-02-23T04:45:28;98156.69;;;-11.16;55.85
61113;BME280;47184;57.998;56.184;2023-02-23T04:47:54;98155.22;;;-11.03;55.61
61113;BME280;47184;57.998;56.184;2023-02-23T04:50:20;98138.88;;;-10.99;55.57
61113;BME280;47184;57.998;56.184;2023-02-23T04:52:47;98153.53;;;-10.85;55.56
61113;BME280;47184;57.998;56.184;2023-02-23T04:55:20;98153.69;;;-10.88;55.65
61113;BME280;47184;57.998;56.184;2023-02-23T04:57:47;98139.28;;;-10.89;55.43
61113;BME280;47184;57.998;56.184;2023-02-23T05:00:13;98140.34;;;-10.76;55.19
61113;BME280;47184;57.998;56.184;2023-02-23T05:02:40;98145.66;;;-10.63;55.73
61113;BME280;47184;57.998;56.184;2023-02-23T05:05:07;98139.53;;;-10.59;55.60
61113;BME280;47184;57.998;56.184;2023-02-23T05:07:34;98139.25;;;-10.53;55.09
61113;BME280;47184;57.998;56.184;2023-02-23T05:10:01;98129.31;;;-10.41;55.27
61113;BME280;47184;57.998;56.184;2023-02-23T05:12:28;98130.66;;;-10.34;55.01
61113;BME280;47184;57.998;56.184;2023-02-23T05:14:55;98122.06;;;-10.16;55.47
61113;BME280;47184;57.998;56.184;2023-02-23T05:17:21;98116.75;;;-9.95;55.40
61113;BME280;47184;57.998;56.184;2023-02-23T05:19:47;98111.47;;;-9.77;54.52
61113;BME280;47184;57.998;56.184;2023-02-23T05:22:13;98126.31;;;-9.52;54.27
61113;BME280;47184;57.998;56.184;2023-02-23T05:24:40;98121.16;;;-9.18;54.02
61113;BME280;47184;57.998;56.184;2023-02-23T05:27:07;98122.09;;;-8.89;53.83
61113;BME280;47184;57.998;56.184;2023-02-23T05:29:34;98118.31;;;-8.68;53.46
61113;BME280;47184;57.998;56.184;2023-02-23T05:32:00;98132.97;;;-8.41;53.71
61113;BME280;47184;57.998;56.184;2023-02-23T05:34:26;98134.28;;;-8.06;53.67
61113;BME280;47184;57.998;56.184;2023-02-23T05:36:52;98134.94;;;-7.74;52.75
61113;BME280;47184;57.998;56.184;2023-02-23T05:39:19;98128.41;;;-7.51;52.42
61113;BME280;47184;57.998;56.184;2023-02-23T05:41:45;98113.31;;;-7.55;52.20
61113;BME280;47184;57.998;56.184;2023-02-23T05:44:12;98120.88;;;-7.39;52.24
61113;BME280;47184;57.998;56.184;2023-02-23T05:46:38;98136.69;;;-7.18;52.74
61113;BME280;47184;57.998;56.184;2023-02-23T05:49:04;98134.72;;;-6.88;52.50
61113;BME280;47184;57.998;56.184;2023-02-23T05:51:32;98125.34;;;-6.62;52.07
61113;BME280;47184;57.998;56.184;2023-02-23T05:53:59;98114.50;;;-6.65;51.13
61113;BME280;47184;57.998;56.184;2023-02-23T05:56:26;98125.16;;;-6.59;50.71
61113;BME280;47184;57.998;56.184;2023-02-23T05:58:54;98119.53;;;-6.38;50.58
61113;BME280;47184;57.998;56.184;2023-02-23T06:01:23;98125.09;;;-5.93;49.99
61113;BME280;47184;57.998;56.184;2023-02-23T06:03:49;98101.03;;;-5.80;49.12
61113;BME280;47184;57.998;56.184;2023-02-23T06:06:16;98120.41;;;-5.50;49.47
61113;BME280;47184;57.998;56.184;2023-02-23T06:08:42;98117.63;;;-4.99;49.48
61113;BME280;47184;57.998;56.184;2023-02-23T06:11:09;98111.81;;;-4.31;48.31
61113;BME280;47184;57.998;56.184;2023-02-23T06:13:35;98113.38;;;-3.72;47.99
61113;BME280;47184;57.998;56.184;2023-02-23T06:16:01;98110.63;;;-3.14;47.31
61113;BME280;47184;57.998;56.184;2023-02-23T06:18:28;98111.47;;;-2.82;46.92
61113;BME280;47184;57.998;56.184;2023-02-23T06:20:55;98110.31;;;-2.36;46.51
61113;BME280;47184;57.998;56.184;2023-02-23T06:23:24;98108.13;;;-1.89;46.45
61113;BME280;47184;57.998;56.184;2023-02-23T06:25:50;98107.66;;;-1.42;45.81
61113;BME280;47184;57.998;56.184;2023-02-23T06:28:16;98106.25;;;-0.67;45.47
61113;BME280;47184;57.998;56.184;2023-02-23T06:30:43;98088.13;;;0.09;44.13
61113;BME280;47184;57.998;56.184;2023-02-23T06:33:11;98103.16;;;0.70;43.48
61113;BME280;47184;57.998;56.184;2023-02-23T06:35:37;98088.00;;;1.11;42.90
61113;BME280;47184;57.998;56.184;2023-02-23T06:38:04;98093.34;;;1.89;42.11
61113;BME280;47184;57.998;56.184;2023-02-23T06:40:31;98094.28;;;2.40;40.52
61113;BME280;47184;57.998;56.184;2023-02-23T06:42:58;98081.13;;;2.41;40.06
61113;BME280;47184;57.998;56.184;2023-02-23T06:45:25;98081.03;;;2.67;39.83
61113;BME280;47184;57.998;56.184;2023-02-23T06:47:51;98106.94;;;3.36;39.54
61113;BME280;47184;57.998;56.184;2023-02-23T06:50:18;98094.03;;;3.91;38.94
61113;BME280;47184;57.998;56.184;2023-02-23T06:52:44;98091.88;;;4.11;38.61
61113;BME280;47184;57.998;56.184;2023-02-23T06:55:10;98094.16;;;4.22;38.47
61113;BME280;47184;57.998;56.184;2023-02-23T06:57:38;98084.94;;;4.43;38.51
61113;BME280;47184;57.998;56.184;2023-02-23T07:00:04;98080.72;;;4.73;36.89
61113;BME280;47184;57.998;56.184;2023-02-23T07:02:30;98078.22;;;4.88;37.30
61113;BME280;47184;57.998;56.184;2023-02-23T07:04:56;98073.03;;;5.11;36.43
61113;BME280;47184;57.998;56.184;2023-02-23T07:07:23;98072.38;;;5.32;36.69
61113;BME280;47184;57.998;56.184;2023-02-23T07:09:49;98079.88;;;5.58;36.76
61113;BME280;47184;57.998;56.184;2023-02-23T07:12:15;98072.22;;;5.94;36.71
61113;BME280;47184;57.998;56.184;2023-02-23T07:14:41;98083.41;;;5.65;34.69
61113;BME280;47184;57.998;56.184;2023-02-23T07:17:07;98047.50;;;5.74;35.43
61113;BME280;47184;57.998;56.184;2023-02-23T07:19:33;98070.44;;;5.71;34.12
61113;BME280;47184;57.998;56.184;2023-02-23T07:21:59;98067.97;;;5.55;34.82
61113;BME280;47184;57.998;56.184;2023-02-23T07:24:25;98079.44;;;5.31;35.48
61113;BME280;47184;57.998;56.184;2023-02-23T07:26:52;98073.94;;;5.18;34.81
61113;BME280;47184;57.998;56.184;2023-02-23T07:29:19;98072.47;;;4.92;35.55
61113;BME280;47184;57.998;56.184;2023-02-23T07:31:45;98080.16;;;4.55;35.95
61113;BME280;47184;57.998;56.184;2023-02-23T07:34:11;98079.16;;;4.16;36.27
61113;BME280;47184;57.998;56.184;2023-02-23T07:36:37;98077.09;;;3.79;36.11
61113;BME280;47184;57.998;56.184;2023-02-23T07:39:04;98080.69;;;3.45;36.36
61113;BME280;47184;57.998;56.184;2023-02-23T07:41:30;98074.66;;;3.20;35.94
61113;BME280;47184;57.998;56.184;2023-02-23T07:43:57;98075.44;;;3.13;36.20
61113;BME280;47184;57.998;56.184;2023-02-23T07:46:24;98086.75;;;2.71;36.16
61113;BME280;47184;57.998;56.184;2023-02-23T07:48:52;98071.81;;;2.05;35.66
61113;BME280;47184;57.998;56.184;2023-02-23T07:51:19;98063.53;;;1.57;36.45
61113;BME280;47184;57.998;56.184;2023-02-23T07:53:45;98075.88;;;1.37;37.08
61113;BME280;47184;57.998;56.184;2023-02-23T07:56:11;98080.84;;;1.48;36.40
61113;BME280;47184;57.998;56.184;2023-02-23T07:58:41;98075.38;;;1.52;35.75
61113;BME280;47184;57.998;56.184;2023-02-23T08:01:11;98077.78;;;1.53;36.17
61113;BME280;47184;57.998;56.184;2023-02-23T08:03:37;98064.72;;;1.89;35.77
61113;BME280;47184;57.998;56.184;2023-02-23T08:06:04;98073.94;;;2.43;35.27
61113;BME280;47184;57.998;56.184;2023-02-23T08:08:30;98075.38;;;2.80;35.09
61113;BME280;47184;57.998;56.184;2023-02-23T08:11:01;98071.50;;;2.92;34.59
61113;BME280;47184;57.998;56.184;2023-02-23T08:13:27;98071.88;;;3.46;34.17
61113;BME280;47184;57.998;56.184;2023-02-23T08:15:54;98050.16;;;3.87;34.12
61113;BME280;47184;57.998;56.184;2023-02-23T08:18:20;98063.63;;;4.23;33.44
61113;BME280;47184;57.998;56.184;2023-02-23T08:20:46;98062.66;;;4.08;33.71
61113;BME280;47184;57.998;56.184;2023-02-23T08:23:12;98067.81;;;3.60;33.79
61113;BME280;47184;57.998;56.184;2023-02-23T08:25:38;98066.19;;;3.43;34.11
61113;BME280;47184;57.998;56.184;2023-02-23T08:28:04;98064.53;;;3.75;33.99
61113;BME280;47184;57.998;56.184;2023-02-23T08:30:32;98054.69;;;4.09;33.33
61113;BME280;47184;57.998;56.184;2023-02-23T08:32:58;98054.22;;;4.53;33.45
61113;BME280;47184;57.998;56.184;2023-02-23T08:35:27;98049.50;;;4.80;32.84
61113;BME280;47184;57.998;56.184;2023-02-23T08:37:56;98054.81;;;5.17;32.21
61113;BME280;47184;57.998;56.184;2023-02-23T08:40:22;98066.50;;;5.53;32.74
61113;BME280;47184;57.998;56.184;2023-02-23T08:42:49;98051.56;;;5.76;32.38
61113;BME280;47184;57.998;56.184;2023-02-23T08:45:17;98038.09;;;6.02;31.71
61113;BME280;47184;57.998;56.184;2023-02-23T08:47:44;98040.63;;;6.10;30.78
61113;BME280;47184;57.998;56.184;2023-02-23T08:50:11;98050.19;;;6.48;29.69
61113;BME280;47184;57.998;56.184;2023-02-23T08:52:38;98044.31;;;7.39;29.99
61113;BME280;47184;57.998;56.184;2023-02-23T08:55:05;98041.16;;;8.00;28.35
61113;BME280;47184;57.998;56.184;2023-02-23T08:57:35;98035.19;;;8.19;28.27
61113;BME280;47184;57.998;56.184;2023-02-23T09:00:01;98021.41;;;8.52;27.23
61113;BME280;47184;57.998;56.184;2023-02-23T09:02:29;98030.28;;;8.10;26.76
61113;BME280;47184;57.998;56.184;2023-02-23T09:04:55;98032.53;;;8.13;27.63
61113;BME280;47184;57.998;56.184;2023-02-23T09:07:22;98022.72;;;8.70;27.51
61113;BME280;47184;57.998;56.184;2023-02-23T09:09:57;98024.25;;;9.38;27.24
61113;BME280;47184;57.998;56.184;2023-02-23T09:12:24;98017.53;;;10.09;26.59
61113;BME280;47184;57.998;56.184;2023-02-23T09:14:50;98019.59;;;10.00;25.97
61113;BME280;47184;57.998;56.184;2023-02-23T09:17:19;98022.38;;;10.32;26.44
61113;BME280;47184;57.998;56.184;2023-02-23T09:19:45;98021.97;;;10.86;25.27
61113;BME280;47184;57.998;56.184;2023-02-23T09:22:11;98021.81;;;11.13;25.54
61113;BME280;47184;57.998;56.184;2023-02-23T09:24:37;98021.75;;;11.51;25.44
61113;BME280;47184;57.998;56.184;2023-02-23T09:27:03;98002.91;;;11.91;25.38
61113;BME280;47184;57.998;56.184;2023-02-23T09:29:32;98011.34;;;12.43;24.67
61113;BME280;47184;57.998;56.184;2023-02-23T09:31:58;98002.06;;;12.52;24.16
61113;BME280;47184;57.998;56.184;2023-02-23T09:34:24;97994.84;;;12.59;23.99
61113;BME280;47184;57.998;56.184;2023-02-23T09:36:50;97998.97;;;12.85;24.37
61113;BME280;47184;57.998;56.184;2023-02-23T09:39:16;97992.34;;;12.64;24.23
61113;BME280;47184;57.998;56.184;2023-02-23T09:49:36;97994.84;;;12.78;23.60
61113;BME280;47184;57.998;56.184;2023-02-23T09:52:05;97977.25;;;12.65;23.46
61113;BME280;47184;57.998;56.184;2023-02-23T09:54:38;97985.53;;;12.20;23.72
61113;BME280;47184;57.998;56.184;2023-02-23T09:57:11;98002.59;;;11.56;23.66
61113;BME280;47184;57.998;56.184;2023-02-23T09:59:39;97997.47;;;11.36;23.82
61113;BME280;47184;57.998;56.184;2023-02-23T10:02:27;98000.81;;;11.25;23.55
61113;BME280;47184;57.998;56.184;2023-02-23T10:05:01;98001.00;;;10.91;23.83
61113;BME280;47184;57.998;56.184;2023-02-23T10:07:42;97997.84;;;10.76;23.57
61113;BME280;47184;57.998;56.184;2023-02-23T10:18:17;97996.63;;;10.14;24.11
61113;BME280;47184;57.998;56.184;2023-02-23T10:23:30;97993.28;;;9.47;24.96
61113;BME280;47184;57.998;56.184;2023-02-23T10:25:59;98003.78;;;9.14;24.90
61113;BME280;47184;57.998;56.184;2023-02-23T10:28:32;97997.25;;;8.83;24.69
61113;BME280;47184;57.998;56.184;2023-02-23T10:30:59;97992.13;;;8.21;24.97
61113;BME280;47184;57.998;56.184;2023-02-23T10:33:33;97999.25;;;7.36;25.50
61113;BME280;47184;57.998;56.184;2023-02-23T10:36:18;98007.44;;;6.47;26.00
61113;BME280;47184;57.998;56.184;2023-02-23T10:38:50;98010.22;;;5.86;26.31
61113;BME280;47184;57.998;56.184;2023-02-23T10:41:16;98004.69;;;5.29;26.60
61113;BME280;47184;57.998;56.184;2023-02-23T10:43:42;98007.38;;;4.75;27.27
61113;BME280;47184;57.998;56.184;2023-02-23T10:46:18;98002.25;;;4.19;27.29
61113;BME280;47184;57.998;56.184;2023-02-23T10:48:46;97997.34;;;3.68;27.61
61113;BME280;47184;57.998;56.184;2023-02-23T10:51:18;97998.69;;;3.23;27.68
61113;BME280;47184;57.998;56.184;2023-02-23T10:53:46;98001.59;;;2.96;27.99
61113;BME280;47184;57.998;56.184;2023-02-23T10:56:15;98017.34;;;2.54;28.49
61113;BME280;47184;57.998;56.184;2023-02-23T10:58:50;98001.53;;;2.05;28.59
61113;BME280;47184;57.998;56.184;2023-02-23T11:01:33;98001.91;;;1.58;28.93
61113;BME280;47184;57.998;56.184;2023-02-23T11:06:48;98005.56;;;1.03;29.63
61113;BME280;47184;57.998;56.184;2023-02-23T11:09:24;98000.38;;;0.85;29.59
61113;BME280;47184;57.998;56.184;2023-02-23T11:12:18;97964.38;;;0.55;29.55
61113;BME280;47184;57.998;56.184;2023-02-23T11:14:49;98010.63;;;0.87;29.52
61113;BME280;47184;57.998;56.184;2023-02-23T11:17:31;98005.88;;;0.82;29.83
61113;BME280;47184;57.998;56.184;2023-02-23T11:20:29;98001.72;;;0.71;29.69
61113;BME280;47184;57.998;56.184;2023-02-23T11:22:55;98003.63;;;0.52;30.13
61113;BME280;47184;57.998;56.184;2023-02-23T11:25:28;97997.63;;;0.23;30.66
61113;BME280;47184;57.998;56.184;2023-02-23T11:27:56;97986.72;;;0.20;30.42
61113;BME280;47184;57.998;56.184;2023-02-23T11:30:32;98005.38;;;0.06;30.66
61113;BME280;47184;57.998;56.184;2023-02-23T11:33:03;98008.03;;;-0.04;30.73
61113;BME280;47184;57.998;56.184;2023-02-23T11:35:37;97997.53;;;-0.12;31.20
61113;BME280;47184;57.998;56.184;2023-02-23T11:38:22;98009.88;;;-0.34;31.54
61113;BME280;47184;57.998;56.184;2023-02-23T11:41:05;97998.44;;;-0.51;31.34
61113;BME280;47184;57.998;56.184;2023-02-23T11:43:36;98008.28;;;-0.44;31.23
61113;BME280;47184;57.998;56.184;2023-02-23T11:46:02;98003.63;;;-0.51;31.68
61113;BME280;47184;57.998;56.184;2023-02-23T11:48:38;98017.59;;;-0.71;31.35
61113;BME280;47184;57.998;56.184;2023-02-23T11:51:08;98017.19;;;-0.95;31.68
61113;BME280;47184;57.998;56.184;2023-02-23T11:53:39;97972.50;;;-1.36;32.17
61113;BME280;47184;57.998;56.184;2023-02-23T11:56:09;98011.88;;;-1.13;32.24
61113;BME280;47184;57.998;56.184;2023-02-23T11:58:48;98016.78;;;-1.20;32.34
61113;BME280;47184;57.998;56.184;2023-02-23T12:01:40;98018.41;;;-1.38;32.66
61113;BME280;47184;57.998;56.184;2023-02-23T12:04:34;98011.06;;;-1.43;32.90
61113;BME280;47184;57.998;56.184;2023-02-23T12:09:44;98021.38;;;-1.53;33.33
61113;BME280;47184;57.998;56.184;2023-02-23T12:12:15;98021.47;;;-1.64;33.47
61113;BME280;47184;57.998;56.184;2023-02-23T12:14:49;98023.78;;;-1.70;33.58
61113;BME280;47184;57.998;56.184;2023-02-23T12:17:26;98031.66;;;-1.72;33.39
61113;BME280;47184;57.998;56.184;2023-02-23T12:20:15;98027.28;;;-1.81;33.05
61113;BME280;47184;57.998;56.184;2023-02-23T12:22:57;98024.38;;;-1.97;33.63
61113;BME280;47184;57.998;56.184;2023-02-23T12:25:50;98000.63;;;-2.43;33.76
61113;BME280;47184;57.998;56.184;2023-02-23T12:28:35;98028.81;;;-2.61;34.18
61113;BME280;47184;57.998;56.184;2023-02-23T12:34:33;98041.59;;;-3.56;35.07
61113;BME280;47184;57.998;56.184;2023-02-23T12:39:51;98023.28;;;-4.18;36.29
61113;BME280;47184;57.998;56.184;2023-02-23T12:42:28;98041.88;;;-4.37;36.41
61113;BME280;47184;57.998;56.184;2023-02-23T12:45:04;98039.41;;;-4.61;37.48
61113;BME280;47184;57.998;56.184;2023-02-23T12:47:52;98047.16;;;-4.85;38.08
61113;BME280;47184;57.998;56.184;2023-02-23T12:50:27;98038.94;;;-5.02;38.24
61113;BME280;47184;57.998;56.184;2023-02-23T12:53:03;98043.91;;;-5.11;38.43
61113;BME280;47184;57.998;56.184;2023-02-23T12:55:38;98041.56;;;-5.14;38.08
61113;BME280;47184;57.998;56.184;2023-02-23T12:58:23;98043.88;;;-5.22;37.87
61113;BME280;47184;57.998;56.184;2023-02-23T13:01:07;98040.38;;;-5.21;37.86
61113;BME280;47184;57.998;56.184;2023-02-23T13:04:06;98046.59;;;-5.37;37.69
61113;BME280;47184;57.998;56.184;2023-02-23T13:18:01;98054.84;;;-5.20;37.09
61113;BME280;47184;57.998;56.184;2023-02-23T13:20:46;98049.44;;;-5.29;36.81
61113;BME280;47184;57.998;56.184;2023-02-23T13:29:23;98042.19;;;-5.48;37.53
61113;BME280;47184;57.998;56.184;2023-02-23T13:31:51;98024.44;;;-5.51;37.42
61113;BME280;47184;57.998;56.184;2023-02-23T13:34:26;98039.63;;;-5.71;37.61
61113;BME280;47184;57.998;56.184;2023-02-23T13:36:53;98044.38;;;-5.78;37.45
61113;BME280;47184;57.998;56.184;2023-02-23T13:39:42;98043.25;;;-5.87;37.99
61113;BME280;47184;57.998;56.184;2023-02-23T13:45:41;98037.25;;;-6.11;37.87
61113;BME280;47184;57.998;56.184;2023-02-23T13:48:44;98050.00;;;-6.10;38.02
61113;BME280;47184;57.998;56.184;2023-02-23T13:56:56;98057.41;;;-6.18;38.23
61113;BME280;47184;57.998;56.184;2023-02-23T13:59:29;98064.09;;;-6.28;38.67
61113;BME280;47184;57.998;56.184;2023-02-23T14:02:00;98056.41;;;-6.41;38.86
61113;BME280;47184;57.998;56.184;2023-02-23T14:04:38;98077.25;;;-6.33;38.91
61113;BME280;47184;57.998;56.184;2023-02-23T14:09:58;98068.69;;;-6.33;38.65
61113;BME280;47184;57.998;56.184;2023-02-23T14:12:40;98073.75;;;-6.44;39.17
61113;BME280;47184;57.998;56.184;2023-02-23T14:18:48;98071.69;;;-6.39;38.90
61113;BME280;47184;57.998;56.184;2023-02-23T14:36:28;98072.00;;;-6.44;39.10
61113;BME280;47184;57.998;56.184;2023-02-23T14:38:59;98079.19;;;-6.36;39.61
61113;BME280;47184;57.998;56.184;2023-02-23T14:41:27;98075.19;;;-6.40;39.61
61113;BME280;47184;57.998;56.184;2023-02-23T14:44:18;98071.06;;;-6.43;39.26
61113;BME280;47184;57.998;56.184;2023-02-23T14:47:11;98067.88;;;-6.46;39.27
61113;BME280;47184;57.998;56.184;2023-02-23T14:49:48;98073.63;;;-6.43;39.69
61113;BME280;47184;57.998;56.184;2023-02-23T14:52:29;98073.94;;;-6.47;39.37
61113;BME280;47184;57.998;56.184;2023-02-23T14:55:25;98077.63;;;-6.52;40.05
61113;BME280;47184;57.998;56.184;2023-02-23T14:57:51;98074.56;;;-6.57;39.63
61113;BME280;47184;57.998;56.184;2023-02-23T15:00:31;98077.75;;;-6.53;39.61
61113;BME280;47184;57.998;56.184;2023-02-23T15:03:05;98071.19;;;-6.57;40.06
61113;BME280;47184;57.998;56.184;2023-02-23T15:06:03;98064.28;;;-6.69;40.20
61113;BME280;47184;57.998;56.184;2023-02-23T15:08:29;98065.00;;;-6.67;39.82